Hauptseite
METAR-TAF:

METAR-TAF

Flughäfen :

Flughafen Cuneo

Cuneo, Italien

Breite: 44-32-47N, Länge: 007-37-20E, Höhe: 386 m

Beobachtung

Neuester Wetterbericht von vor 1 Stunde und 9 Minuten, um 13:50 UTC
Wind 3 kt aus unterschiedlichen Richtungen
Temperatur 27°C
Luftfeuchtigkeit 62%
Luftdruck 1014 hPa
Sichtweite 10 km oder mehr
Aufgelockert bewölkt in der Höhe von 3000 ft

METAR: LIMZ 111350Z VRB03KT 9999 SCT030 27/19 Q1014

Zeit: 16:59 (14:59 UTC)

Prognose

Neuester Wetterbericht von vor 3 Stunden und 59 Minuten, um 11:00 UTC
Gültige Prognose vom 11 um 12 UTC bis 12 um 12 UTC
Wind 5 kt aus unterschiedlichen Richtungen
Sichtweite 10 km oder mehr
Aufgelockert bewölkt in der Höhe von 4000 ft
Zeitweise
vom 11 um 14 UTC bis 11 um 20 UTC
Sichtweite: 4000 m
Gewitter, Regen

TAF: LIMZ 111100Z 1112/1212 VRB05KT 9999 SCT040 TEMPO 1114/1120 4000 TSRA

Wetterbeobachtungen und Prognosen von mehr als 4000 Flughäfen (METAR und TAF Bericht).

Die verfügbaren Stationen werden durch gelbe und rote Markierungen auf der Karte dargestellt.

Führen Sie die Maus auf sie, um den Namen der Station zu sehen.

Darauf klicken, um die Beobachtung von Wetterbeobachtungen und Prognosen zu sehen.

Um die Karte zu ändern : klicken Sie auf den grünen Tasten mit einem schwarzen Kreuz Zum Vergrößern, auf den grünen Button mit einem Gedankenstrich zu verkleinern, oder auf die grünen Pfeile für benachbarte Karten.


METAR-TAF: